Time;durP1;ratioP1;P1;durP2;ratioP2;P2;SDS_P1;SDS_P2;PMS_P1;PMS_P2;Temp;Humidity;BMP_temperature;BMP_pressure;BME280_temperature;BME280_humidity;BME280_pressure;Samples;Min_cycle;Max_cycle;Signal;HPM_P1;HPM_P2
2021/01/22 05:02:42;;;;;;;0.20;0.20;;;9.80;99.90;;;;;;4915800;29;20296;-76
2021/01/22 05:05:09;;;;;;;0.28;0.28;;;9.60;99.90;;;;;;4916186;29;20206;-71
2021/01/22 05:07:36;;;;;;;0.38;0.38;;;9.30;99.90;;;;;;4915745;29;20755;-69
2021/01/22 05:10:04;;;;;;;0.30;0.20;;;9.00;99.90;;;;;;4916769;29;20627;-76
2021/01/22 05:12:34;;;;;;;0.57;0.57;;;8.80;99.90;;;;;;4898812;29;20204;-74
2021/01/22 05:15:12;;;;;;;0.30;0.30;;;8.70;99.90;;;;;;4897570;29;20222;-71
2021/01/22 05:17:56;;;;;;;0.55;0.28;;;8.50;99.90;;;;;;4896884;29;20239;-70
2021/01/22 05:20:34;;;;;;;0.20;0.20;;;8.20;99.90;;;;;;4896716;29;20263;-69
2021/01/22 05:23:01;;;;;;;0.20;0.20;;;8.00;99.90;;;;;;4896873;29;20672;-74
2021/01/22 05:25:28;;;;;;;0.30;0.20;;;7.80;99.90;;;;;;4882942;29;20211;-77
2021/01/22 05:27:56;;;;;;;0.20;0.20;;;7.40;99.90;;;;;;4897630;29;20656;-77
2021/01/22 05:30:23;;;;;;;0.20;0.20;;;7.20;99.90;;;;;;4895765;29;20298;-77
2021/01/22 05:32:51;;;;;;;1.33;0.20;;;7.00;99.90;;;;;;4897308;29;20210;-77
2021/01/22 05:35:30;;;;;;;0.20;0.20;;;6.80;99.90;;;;;;4897108;29;20211;-76
2021/01/22 05:37:56;;;;;;;0.10;0.10;;;6.60;99.90;;;;;;4898423;29;20210;-76
2021/01/22 05:40:24;;;;;;;0.20;0.20;;;6.50;99.90;;;;;;4897461;29;20235;-76
2021/01/22 05:42:51;;;;;;;0.25;0.25;;;6.40;99.90;;;;;;4897019;29;20227;-77
2021/01/22 05:45:19;;;;;;;0.20;0.20;;;6.30;99.90;;;;;;4896086;29;20235;-76
2021/01/22 05:47:46;;;;;;;0.20;0.20;;;6.10;99.90;;;;;;4899235;29;20216;-76
2021/01/22 05:50:13;;;;;;;2.03;1.98;;;6.10;99.90;;;;;;4899301;29;20207;-76
2021/01/22 05:52:40;;;;;;;0.60;0.60;;;6.00;99.90;;;;;;4900452;29;20203;-76
2021/01/22 05:55:20;;;;;;;0.20;0.20;;;6.00;99.90;;;;;;4900036;29;20211;-76
2021/01/22 05:57:46;;;;;;;0.40;0.30;;;5.90;99.90;;;;;;4882590;29;20223;-76
2021/01/22 06:00:14;;;;;;;0.47;0.47;;;5.90;99.90;;;;;;4897915;29;20361;-76
2021/01/22 06:02:40;;;;;;;0.38;0.38;;;5.80;99.90;;;;;;4902333;29;20286;-76
2021/01/22 06:05:10;;;;;;;0.40;0.40;;;5.70;99.90;;;;;;4905060;29;20207;-77
2021/01/22 06:07:38;;;;;;;0.35;0.35;;;5.60;99.90;;;;;;4900824;29;20257;-76
2021/01/22 06:10:19;;;;;;;0.60;0.60;;;5.50;99.90;;;;;;4904413;29;20211;-75
2021/01/22 06:12:50;;;;;;;0.93;0.93;;;5.40;99.90;;;;;;4904603;29;20229;-76
2021/01/22 06:15:18;;;;;;;0.57;0.57;;;5.40;99.90;;;;;;4902991;29;20208;-76
2021/01/22 06:17:47;;;;;;;1.00;0.85;;;5.40;99.90;;;;;;4905087;29;20234;-77
2021/01/22 06:20:15;;;;;;;1.35;1.35;;;5.30;99.90;;;;;;4905037;29;20298;-76
2021/01/22 06:22:51;;;;;;;0.80;0.80;;;5.30;99.90;;;;;;4904378;29;20266;-76
2021/01/22 06:25:17;;;;;;;1.20;1.20;;;5.30;99.90;;;;;;4904077;29;20219;-76
2021/01/22 06:27:45;;;;;;;0.80;0.77;;;5.20;99.90;;;;;;4904121;29;20583;-76
2021/01/22 06:30:14;;;;;;;0.82;0.82;;;5.20;99.90;;;;;;4905347;29;20210;-75
2021/01/22 06:32:41;;;;;;;1.13;1.13;;;5.20;99.90;;;;;;4903440;29;20278;-76
2021/01/22 06:35:09;;;;;;;0.82;0.82;;;5.10;99.90;;;;;;4899677;29;20611;-76
2021/01/22 06:37:36;;;;;;;1.10;1.10;;;5.10;99.90;;;;;;4901647;29;20207;-75
2021/01/22 06:40:04;;;;;;;2.78;1.23;;;5.10;99.90;;;;;;4902306;29;20211;-74
2021/01/22 06:42:35;;;;;;;1.10;1.10;;;5.10;99.90;;;;;;4898815;29;20282;-76
2021/01/22 06:45:02;;;;;;;1.33;1.33;;;5.00;99.90;;;;;;4900374;29;20211;-76
2021/01/22 06:47:28;;;;;;;1.88;1.88;;;4.90;99.90;;;;;;4899685;29;20215;-76
2021/01/22 06:49:54;;;;;;;1.40;1.40;;;4.90;99.90;;;;;;4901202;29;20755;-75
2021/01/22 06:52:20;;;;;;;2.10;2.00;;;4.90;99.90;;;;;;4899038;29;20246;-74
2021/01/22 06:55:05;;;;;;;2.03;1.92;;;4.90;99.90;;;;;;4899635;29;20207;-74
2021/01/22 06:57:31;;;;;;;2.10;2.10;;;4.90;99.90;;;;;;4899918;29;20702;-74
2021/01/22 06:59:59;;;;;;;2.60;2.50;;;4.80;99.90;;;;;;4899425;29;20220;-74
2021/01/22 07:02:39;;;;;;;2.28;2.25;;;4.80;99.90;;;;;;4898445;29;20230;-74
2021/01/22 07:05:36;;;;;;;2.67;2.55;;;4.80;99.90;;;;;;4899199;29;20552;-74
2021/01/22 07:08:03;;;;;;;2.65;2.55;;;4.80;99.90;;;;;;4817483;29;20215;-74
2021/01/22 07:10:57;;;;;;;3.92;3.72;;;4.80;99.90;;;;;;4872290;29;20283;-74
2021/01/22 07:13:34;;;;;;;3.47;3.38;;;4.70;99.90;;;;;;4886512;29;20211;-73
2021/01/22 07:16:01;;;;;;;3.00;2.90;;;4.60;99.90;;;;;;4886359;29;20203;-72
2021/01/22 07:18:27;;;;;;;2.30;2.20;;;4.60;99.90;;;;;;4898778;29;20211;-73
2021/01/22 07:21:18;;;;;;;2.60;2.50;;;4.60;99.90;;;;;;4898486;29;20720;-73
2021/01/22 07:23:45;;;;;;;2.78;2.67;;;4.50;99.90;;;;;;4896552;29;20614;-74
2021/01/22 07:26:13;;;;;;;2.85;2.65;;;4.60;99.90;;;;;;4898122;29;20587;-73
2021/01/22 07:28:49;;;;;;;2.25;2.17;;;4.50;99.90;;;;;;4899116;29;20569;-74
2021/01/22 07:32:04;;;;;;;2.88;2.78;;;4.50;99.90;;;;;;4907066;29;20250;-72
2021/01/22 07:34:50;;;;;;;3.13;2.83;;;4.50;99.90;;;;;;4855757;29;20273;-71
2021/01/22 07:37:18;;;;;;;6.47;5.18;;;4.50;99.90;;;;;;4864769;29;20261;-72
2021/01/22 07:39:45;;;;;;;3.30;3.13;;;4.50;99.90;;;;;;4879433;29;20216;-72
2021/01/22 07:42:14;;;;;;;2.90;2.70;;;4.50;99.90;;;;;;4907643;29;20251;-72
2021/01/22 07:44:42;;;;;;;4.32;4.00;;;4.50;99.90;;;;;;4910235;29;20238;-72
2021/01/22 07:47:09;;;;;;;2.75;2.65;;;4.50;99.90;;;;;;4908280;29;20223;-73
2021/01/22 07:49:51;;;;;;;3.40;3.20;;;4.50;99.90;;;;;;4908309;29;20468;-73
2021/01/22 07:52:17;;;;;;;10.65;5.85;;;4.60;99.90;;;;;;4902422;29;20315;-72
2021/01/22 07:54:43;;;;;;;3.40;3.20;;;4.60;99.90;;;;;;4902128;29;20218;-73
2021/01/22 07:57:15;;;;;;;2.70;2.50;;;4.60;99.90;;;;;;4899615;29;20207;-72
2021/01/22 07:59:42;;;;;;;3.55;3.35;;;4.70;99.90;;;;;;4901205;29;20218;-72
2021/01/22 08:02:16;;;;;;;3.50;3.30;;;4.70;99.90;;;;;;4898291;29;20250;-72
2021/01/22 08:04:43;;;;;;;3.35;3.15;;;4.70;99.90;;;;;;4899203;29;20273;-72
2021/01/22 08:07:09;;;;;;;4.22;3.78;;;4.70;99.90;;;;;;4902466;29;20220;-72
2021/01/22 08:09:35;;;;;;;2.88;2.60;;;4.80;99.90;;;;;;4904017;29;20215;-72
2021/01/22 08:12:09;;;;;;;3.83;3.10;;;4.80;99.90;;;;;;4903004;29;20270;-72
2021/01/22 08:14:37;;;;;;;5.53;3.63;;;4.80;99.90;;;;;;4902728;29;20219;-72
2021/01/22 08:17:05;;;;;;;9.95;3.75;;;4.80;99.90;;;;;;4898959;29;20223;-72
2021/01/22 08:19:32;;;;;;;3.40;3.10;;;4.90;99.90;;;;;;4903140;29;20207;-70
2021/01/22 08:22:00;;;;;;;3.28;3.10;;;4.90;99.90;;;;;;4903047;29;20839;-71
2021/01/22 08:24:27;;;;;;;3.67;3.47;;;4.90;99.90;;;;;;4903368;29;20207;-71
2021/01/22 08:27:00;;;;;;;3.28;3.05;;;4.90;99.90;;;;;;4901271;29;20263;-71
2021/01/22 08:29:28;;;;;;;3.55;3.15;;;4.90;99.90;;;;;;4900203;29;20231;-72
2021/01/22 08:31:56;;;;;;;2.97;2.78;;;5.00;99.90;;;;;;4897311;29;20223;-68
2021/01/22 08:34:24;;;;;;;4.43;3.30;;;5.00;99.90;;;;;;4882764;29;20208;-73
2021/01/22 08:36:52;;;;;;;4.22;3.92;;;5.00;99.90;;;;;;4894783;29;20905;-71
2021/01/22 08:39:18;;;;;;;4.10;3.80;;;5.00;99.90;;;;;;4880706;29;20744;-71
2021/01/22 08:41:44;;;;;;;4.25;3.85;;;5.10;99.90;;;;;;4878547;29;20236;-71
2021/01/22 08:44:10;;;;;;;3.92;3.63;;;5.10;99.90;;;;;;4879132;29;20223;-71
2021/01/22 08:46:46;;;;;;;6.50;4.40;;;5.10;99.90;;;;;;4893487;29;20278;-71
2021/01/22 08:49:13;;;;;;;4.30;3.75;;;5.20;99.90;;;;;;4891312;29;20204;-71
2021/01/22 08:51:40;;;;;;;4.60;4.30;;;5.20;99.90;;;;;;4880370;29;20557;-71
2021/01/22 08:54:07;;;;;;;4.47;4.07;;;5.20;99.90;;;;;;4897303;29;20672;-71
2021/01/22 08:56:34;;;;;;;5.10;4.30;;;5.20;99.90;;;;;;4897190;29;20287;-71
2021/01/22 08:59:10;;;;;;;3.80;3.60;;;5.20;99.90;;;;;;4897766;29;20214;-72
2021/01/22 09:01:56;;;;;;;4.20;3.90;;;5.20;99.90;;;;;;4895784;29;20278;-71
2021/01/22 09:04:31;;;;;;;4.85;4.40;;;5.30;99.90;;;;;;4897574;29;20239;-71
2021/01/22 09:06:58;;;;;;;4.68;4.28;;;5.30;99.90;;;;;;4896550;29;20294;-71
2021/01/22 09:09:41;;;;;;;4.30;3.92;;;5.30;99.90;;;;;;4897202;29;20230;-71
2021/01/22 09:12:08;;;;;;;5.85;5.13;;;5.30;99.90;;;;;;4894197;29;20226;-71
2021/01/22 09:14:48;;;;;;;4.30;4.00;;;5.30;99.90;;;;;;4896283;29;20351;-71
2021/01/22 09:17:36;;;;;;;5.68;5.10;;;5.30;99.90;;;;;;4896581;29;20211;-71
2021/01/22 09:20:07;;;;;;;5.03;4.63;;;5.30;99.90;;;;;;4894267;29;20219;-70
2021/01/22 09:22:34;;;;;;;7.40;5.30;;;5.30;99.90;;;;;;4896325;29;20231;-71
2021/01/22 09:25:02;;;;;;;5.88;5.38;;;5.40;99.90;;;;;;4895795;29;20531;-73
2021/01/22 09:27:28;;;;;;;6.63;5.25;;;5.40;99.90;;;;;;4893960;29;20590;-72
2021/01/22 09:29:55;;;;;;;6.05;5.10;;;5.50;99.90;;;;;;4894225;29;20207;-71
2021/01/22 09:32:21;;;;;;;6.47;5.10;;;5.50;99.90;;;;;;4894187;29;20342;-72
2021/01/22 09:34:47;;;;;;;5.68;5.18;;;5.60;99.90;;;;;;4894914;29;20208;-72
2021/01/22 09:37:14;;;;;;;5.55;5.05;;;5.60;99.90;;;;;;4895031;29;20227;-72
2021/01/22 09:39:40;;;;;;;8.13;4.90;;;5.70;99.90;;;;;;4896968;29;20231;-72
2021/01/22 09:42:07;;;;;;;5.22;4.82;;;5.70;99.90;;;;;;4898472;29;20688;-72
2021/01/22 09:44:33;;;;;;;6.63;6.07;;;5.70;99.90;;;;;;4900399;29;20222;-71
2021/01/22 09:46:59;;;;;;;5.43;5.03;;;5.70;99.90;;;;;;4899782;29;20528;-71
2021/01/22 09:49:26;;;;;;;6.55;5.93;;;5.70;99.90;;;;;;4900097;29;20614;-71
2021/01/22 09:51:52;;;;;;;6.68;5.07;;;5.80;99.90;;;;;;4902131;29;20237;-71
2021/01/22 09:54:19;;;;;;;5.97;5.28;;;5.80;99.90;;;;;;4902716;29;20253;-71
2021/01/22 09:56:45;;;;;;;7.70;6.85;;;5.80;99.90;;;;;;4899919;29;20291;-73
2021/01/22 09:59:11;;;;;;;6.45;5.15;;;5.80;99.90;;;;;;4899905;29;20287;-71
2021/01/22 10:01:37;;;;;;;5.80;5.30;;;5.80;99.90;;;;;;4898354;29;20242;-75
2021/01/22 10:04:04;;;;;;;6.15;5.65;;;5.80;99.90;;;;;;4900147;29;20207;-71
2021/01/22 10:06:31;;;;;;;5.68;5.25;;;5.90;99.90;;;;;;4899897;29;20207;-71
2021/01/22 10:08:57;;;;;;;6.13;5.63;;;5.90;99.90;;;;;;4899795;29;20689;-70
2021/01/22 10:11:24;;;;;;;7.05;6.20;;;5.90;99.90;;;;;;4900018;29;20242;-70
2021/01/22 10:13:54;;;;;;;7.32;5.55;;;6.00;99.90;;;;;;4900267;29;20294;-70
2021/01/22 10:16:22;;;;;;;7.82;6.47;;;6.10;99.90;;;;;;4899689;29;20631;-71
2021/01/22 10:18:49;;;;;;;6.00;5.50;;;6.10;99.90;;;;;;4900224;29;20247;-71
2021/01/22 10:21:17;;;;;;;5.90;5.40;;;6.00;99.90;;;;;;4899138;29;20721;-72
2021/01/22 10:23:43;;;;;;;5.93;5.40;;;6.00;99.90;;;;;;4898005;29;20270;-71
2021/01/22 10:26:09;;;;;;;11.20;8.52;;;6.00;99.90;;;;;;4899130;29;20207;-72
2021/01/22 10:28:36;;;;;;;6.40;5.80;;;5.90;99.90;;;;;;4899345;29;20203;-72
2021/01/22 10:31:03;;;;;;;8.18;6.20;;;6.00;99.90;;;;;;4898499;29;20288;-72
2021/01/22 10:33:29;;;;;;;6.05;5.65;;;6.00;99.90;;;;;;4899257;29;20688;-72
2021/01/22 10:35:55;;;;;;;7.85;5.03;;;6.00;99.90;;;;;;4899268;29;20214;-71
2021/01/22 10:38:21;;;;;;;5.55;5.15;;;6.00;99.90;;;;;;4900226;29;20212;-71
2021/01/22 10:40:47;;;;;;;6.00;5.50;;;6.00;99.90;;;;;;4898478;29;20235;-71
2021/01/22 10:43:13;;;;;;;5.65;5.10;;;6.00;99.90;;;;;;4899293;29;20235;-72
2021/01/22 10:45:41;;;;;;;7.60;5.55;;;6.00;99.90;;;;;;4898487;29;20203;-71
2021/01/22 10:48:08;;;;;;;5.72;5.13;;;6.00;99.90;;;;;;4899159;29;20247;-71
2021/01/22 10:50:34;;;;;;;9.65;7.00;;;6.00;99.90;;;;;;4897886;29;20234;-70
2021/01/22 10:53:00;;;;;;;5.80;5.22;;;6.10;99.90;;;;;;4899057;29;20255;-72
2021/01/22 10:55:26;;;;;;;8.52;5.32;;;6.10;99.90;;;;;;4898735;29;20238;-72
2021/01/22 10:57:52;;;;;;;6.38;5.88;;;6.10;99.90;;;;;;4899500;29;20218;-71
2021/01/22 11:00:20;;;;;;;7.47;6.78;;;6.20;99.90;;;;;;4898055;29;20243;-71
2021/01/22 11:02:47;;;;;;;5.40;4.90;;;6.20;99.90;;;;;;4898928;29;20238;-72
2021/01/22 11:05:14;;;;;;;9.30;4.25;;;6.20;99.90;;;;;;4898745;29;20691;-70
2021/01/22 11:07:40;;;;;;;5.05;4.75;;;6.20;99.90;;;;;;4899229;29;20207;-70
2021/01/22 11:10:08;;;;;;;6.10;5.50;;;6.30;99.90;;;;;;4898418;29;20580;-70
2021/01/22 11:12:34;;;;;;;5.88;5.45;;;6.30;99.90;;;;;;4898723;29;20243;-70
2021/01/22 11:15:00;;;;;;;5.40;5.00;;;6.40;99.90;;;;;;4898144;29;20211;-70
2021/01/22 11:17:26;;;;;;;6.15;5.72;;;6.40;99.90;;;;;;4898084;29;20244;-69
2021/01/22 11:19:53;;;;;;;6.75;4.53;;;6.40;99.90;;;;;;4898620;29;20215;-69
2021/01/22 11:22:19;;;;;;;7.25;5.50;;;6.50;99.90;;;;;;4898125;29;20246;-69
2021/01/22 11:24:45;;;;;;;5.53;5.13;;;6.50;99.90;;;;;;4898336;29;20214;-70
2021/01/22 11:27:12;;;;;;;5.93;5.05;;;6.50;99.90;;;;;;4898348;29;20286;-70
2021/01/22 11:29:38;;;;;;;5.03;4.68;;;6.60;99.90;;;;;;4898161;29;20212;-70
2021/01/22 11:32:05;;;;;;;8.30;5.80;;;6.60;99.90;;;;;;4897716;29;20283;-70
2021/01/22 11:34:32;;;;;;;5.88;5.38;;;6.60;99.90;;;;;;4898382;29;20207;-70
2021/01/22 11:36:59;;;;;;;7.38;5.00;;;6.60;99.90;;;;;;4898348;29;20695;-70
2021/01/22 11:39:25;;;;;;;5.60;5.20;;;6.60;99.90;;;;;;4897914;29;20665;-72
2021/01/22 11:41:52;;;;;;;5.93;5.43;;;6.60;99.90;;;;;;4897842;29;20234;-70
2021/01/22 11:44:18;;;;;;;5.40;5.00;;;6.80;99.90;;;;;;4897970;29;20207;-70
2021/01/22 11:46:44;;;;;;;8.27;7.28;;;6.80;99.90;;;;;;4897218;29;20226;-71
2021/01/22 11:49:10;;;;;;;7.57;6.97;;;6.80;99.90;;;;;;4898024;29;20207;-70
2021/01/22 11:51:37;;;;;;;7.82;7.03;;;6.80;99.90;;;;;;4897486;29;20695;-72
2021/01/22 11:54:05;;;;;;;7.40;6.70;;;6.80;99.90;;;;;;4898359;29;20207;-75
2021/01/22 11:56:31;;;;;;;8.52;7.05;;;6.80;99.90;;;;;;4898596;29;20210;-75
2021/01/22 11:58:57;;;;;;;6.53;5.95;;;6.80;99.90;;;;;;4898522;29;20211;-74
2021/01/22 12:01:24;;;;;;;6.32;5.82;;;6.80;99.90;;;;;;4897754;29;20243;-75
2021/01/22 12:03:51;;;;;;;5.45;5.05;;;6.80;99.90;;;;;;4898024;29;20715;-75
2021/01/22 12:06:17;;;;;;;7.05;6.10;;;6.80;99.90;;;;;;4898440;29;20215;-75
2021/01/22 12:08:43;;;;;;;6.47;5.88;;;6.80;99.90;;;;;;4898391;29;20280;-75
2021/01/22 12:11:10;;;;;;;7.88;7.07;;;6.80;99.90;;;;;;4898468;29;20230;-74
2021/01/22 12:13:36;;;;;;;7.70;5.70;;;6.90;99.90;;;;;;4897817;29;20660;-74
2021/01/22 12:16:02;;;;;;;6.70;6.10;;;6.90;99.90;;;;;;4897937;29;20672;-75
2021/01/22 12:18:28;;;;;;;8.43;6.88;;;6.90;99.90;;;;;;4898095;29;20211;-74
2021/01/22 12:20:55;;;;;;;5.68;5.00;;;6.90;99.90;;;;;;4897613;29;20274;-74
2021/01/22 12:23:21;;;;;;;5.85;5.25;;;7.00;99.90;;;;;;4897609;29;20251;-75
2021/01/22 12:25:47;;;;;;;6.72;5.53;;;6.90;99.90;;;;;;4897673;29;20208;-75
2021/01/22 12:28:15;;;;;;;5.60;5.10;;;7.00;99.90;;;;;;4897321;29;20207;-72
2021/01/22 12:30:41;;;;;;;6.45;5.05;;;6.90;99.90;;;;;;4896452;29;20223;-72
2021/01/22 12:33:08;;;;;;;5.63;4.80;;;6.90;99.90;;;;;;4897454;29;20218;-70
2021/01/22 12:35:34;;;;;;;5.28;4.82;;;6.90;99.90;;;;;;4897347;29;20211;-72
2021/01/22 12:38:00;;;;;;;5.72;5.22;;;6.90;99.90;;;;;;4897170;29;20207;-71
2021/01/22 12:40:27;;;;;;;6.10;5.70;;;6.90;99.90;;;;;;4896468;29;20230;-70
2021/01/22 12:42:53;;;;;;;6.70;6.07;;;6.80;99.90;;;;;;4896970;29;20223;-71
2021/01/22 12:45:24;;;;;;;5.13;4.85;;;6.80;99.90;;;;;;4892396;29;20228;-71
2021/01/22 12:47:51;;;;;;;5.65;5.15;;;6.80;99.90;;;;;;4896939;29;20306;-71
2021/01/22 12:50:17;;;;;;;6.82;5.65;;;6.70;99.90;;;;;;4894613;29;20523;-70
2021/01/22 12:52:43;;;;;;;6.00;5.20;;;6.80;99.90;;;;;;4897017;29;20214;-71
2021/01/22 12:55:11;;;;;;;5.78;5.00;;;6.70;99.90;;;;;;4896893;29;20239;-73
2021/01/22 12:57:37;;;;;;;5.07;4.78;;;6.70;99.90;;;;;;4896380;29;20204;-72
2021/01/22 13:00:05;;;;;;;5.30;4.90;;;6.70;99.90;;;;;;4896865;29;20687;-73
2021/01/22 13:02:32;;;;;;;7.88;5.78;;;6.70;99.90;;;;;;4896665;29;20354;-72
2021/01/22 13:04:59;;;;;;;6.00;5.32;;;6.70;99.90;;;;;;4896785;29;20268;-74
2021/01/22 13:07:25;;;;;;;5.00;4.68;;;6.70;99.90;;;;;;4897078;29;20215;-74
2021/01/22 13:09:51;;;;;;;9.02;5.15;;;6.70;99.90;;;;;;4897496;29;20230;-72
2021/01/22 13:12:17;;;;;;;7.20;5.22;;;6.60;99.90;;;;;;4897270;29;20235;-72
2021/01/22 13:14:45;;;;;;;6.05;5.40;;;6.60;99.90;;;;;;4897497;29;20219;-72
2021/01/22 13:17:11;;;;;;;5.80;5.30;;;6.60;99.90;;;;;;4900655;29;20219;-73
2021/01/22 13:19:38;;;;;;;7.78;6.35;;;6.60;99.90;;;;;;4901623;29;20663;-73
2021/01/22 13:22:04;;;;;;;7.00;6.15;;;6.50;99.90;;;;;;4901986;29;20235;-73
2021/01/22 13:24:30;;;;;;;6.78;6.05;;;6.50;99.90;;;;;;4902852;29;20240;-72
2021/01/22 13:26:56;;;;;;;13.63;10.57;;;6.50;99.90;;;;;;4903110;29;20241;-74
2021/01/22 13:29:22;;;;;;;9.10;7.03;;;6.60;99.90;;;;;;4903261;29;20207;-72
2021/01/22 13:31:49;;;;;;;6.15;5.60;;;6.60;99.90;;;;;;4896686;29;20232;-73
2021/01/22 13:34:15;;;;;;;10.43;6.20;;;6.60;99.90;;;;;;4896997;29;20305;-75
2021/01/22 13:36:42;;;;;;;7.10;6.40;;;6.60;99.90;;;;;;4897005;29;20565;-73
2021/01/22 13:39:09;;;;;;;8.57;6.07;;;6.70;99.90;;;;;;4896742;29;20215;-73
2021/01/22 13:41:36;;;;;;;7.28;6.38;;;6.70;99.90;;;;;;4896560;29;20235;-71
2021/01/22 13:44:02;;;;;;;7.05;6.50;;;6.70;99.90;;;;;;4909948;29;20239;-72
2021/01/22 13:46:28;;;;;;;6.45;5.85;;;6.70;99.90;;;;;;4914474;29;20211;-75
2021/01/22 13:48:54;;;;;;;9.13;7.00;;;6.70;99.90;;;;;;4914632;29;20203;-75
2021/01/22 13:51:21;;;;;;;5.60;5.18;;;6.70;99.90;;;;;;4906214;29;20582;-76
2021/01/22 13:53:48;;;;;;;5.95;5.50;;;6.70;99.90;;;;;;4897567;29;20314;-75
2021/01/22 13:56:14;;;;;;;5.68;5.18;;;6.70;99.90;;;;;;4897494;29;20215;-75
2021/01/22 13:58:40;;;;;;;7.05;4.65;;;6.80;99.90;;;;;;4896810;29;20625;-75
2021/01/22 14:01:06;;;;;;;5.20;4.78;;;6.70;99.90;;;;;;4896285;29;20235;-75
2021/01/22 14:03:32;;;;;;;5.78;5.22;;;6.70;99.90;;;;;;4896950;29;20231;-75
2021/01/22 14:05:58;;;;;;;6.40;4.78;;;6.60;99.90;;;;;;4896852;29;20214;-72
2021/01/22 14:08:25;;;;;;;6.65;4.20;;;6.60;99.90;;;;;;4895659;29;20553;-72
2021/01/22 14:10:53;;;;;;;8.27;5.75;;;6.60;99.90;;;;;;4896824;29;20599;-73
2021/01/22 14:13:19;;;;;;;5.30;4.88;;;6.60;99.90;;;;;;4892259;29;20297;-75
2021/01/22 14:15:45;;;;;;;5.53;4.90;;;6.60;99.90;;;;;;4894157;29;20269;-74
2021/01/22 14:18:11;;;;;;;8.75;6.10;;;6.50;99.90;;;;;;4896394;29;20530;-74
2021/01/22 14:20:37;;;;;;;7.15;5.35;;;6.50;99.90;;;;;;4896719;29;20684;-75
2021/01/22 14:23:04;;;;;;;7.88;6.65;;;6.50;99.90;;;;;;4896560;29;20235;-74
2021/01/22 14:25:30;;;;;;;11.57;5.45;;;6.50;99.90;;;;;;4897372;29;20287;-75
2021/01/22 14:27:58;;;;;;;11.07;7.50;;;6.50;99.90;;;;;;4900183;29;20222;-74
2021/01/22 14:30:24;;;;;;;6.95;6.35;;;6.50;99.90;;;;;;4899358;29;20715;-74
2021/01/22 14:32:50;;;;;;;6.10;5.60;;;6.40;99.90;;;;;;4899786;29;20207;-71
2021/01/22 14:35:17;;;;;;;5.90;5.32;;;6.40;99.90;;;;;;4899297;29;20676;-72
2021/01/22 14:37:44;;;;;;;5.85;5.45;;;6.50;99.90;;;;;;4899979;29;20215;-74
2021/01/22 14:40:12;;;;;;;6.45;5.90;;;6.50;99.90;;;;;;4899846;29;20258;-72
2021/01/22 14:42:38;;;;;;;6.90;4.70;;;6.40;99.90;;;;;;4899155;29;20562;-72
2021/01/22 14:45:07;;;;;;;6.00;4.85;;;6.50;99.90;;;;;;4898247;29;20234;-72
2021/01/22 14:47:33;;;;;;;6.07;5.47;;;6.50;99.90;;;;;;4900070;29;20207;-72
2021/01/22 14:50:02;;;;;;;6.78;6.18;;;6.40;99.90;;;;;;4900306;29;20211;-73
2021/01/22 14:52:28;;;;;;;7.30;5.25;;;6.40;99.90;;;;;;4900770;29;20227;-73
2021/01/22 14:54:56;;;;;;;5.55;4.95;;;6.40;99.90;;;;;;4900914;29;20207;-72
2021/01/22 14:57:23;;;;;;;5.82;5.32;;;6.40;99.90;;;;;;4899949;29;20255;-72
2021/01/22 14:59:49;;;;;;;6.97;5.00;;;6.40;99.90;;;;;;4898774;29;20210;-72
2021/01/22 15:02:16;;;;;;;6.15;5.47;;;6.40;99.90;;;;;;4898810;29;20270;-73
2021/01/22 15:04:42;;;;;;;8.63;5.43;;;6.40;99.90;;;;;;4899147;29;20218;-73
2021/01/22 15:07:09;;;;;;;4.10;3.80;;;6.40;99.90;;;;;;4898651;29;20231;-73
2021/01/22 15:09:35;;;;;;;4.97;4.30;;;6.40;99.90;;;;;;4899037;29;20215;-73
2021/01/22 15:12:01;;;;;;;6.60;6.03;;;6.30;99.90;;;;;;4898651;29;20227;-71
2021/01/22 15:14:27;;;;;;;5.90;4.85;;;6.20;99.90;;;;;;4898247;29;20207;-71
2021/01/22 15:16:53;;;;;;;5.75;5.20;;;6.20;99.90;;;;;;4898309;29;20222;-71
2021/01/22 15:19:20;;;;;;;7.43;6.15;;;6.20;99.90;;;;;;4898746;29;20203;-70
2021/01/22 15:21:46;;;;;;;6.85;5.32;;;6.10;99.90;;;;;;4898689;29;20235;-70
2021/01/22 15:24:13;;;;;;;6.50;5.85;;;6.10;99.90;;;;;;4898978;29;20231;-70
2021/01/22 15:26:39;;;;;;;5.03;4.50;;;6.10;99.90;;;;;;4898517;29;20267;-72
2021/01/22 15:29:05;;;;;;;5.45;5.05;;;6.00;99.90;;;;;;4898414;29;20653;-71
2021/01/22 15:31:32;;;;;;;5.53;5.13;;;6.00;99.90;;;;;;4897469;29;20230;-73
2021/01/22 15:33:59;;;;;;;5.40;4.95;;;6.00;99.90;;;;;;4897950;29;20786;-70
2021/01/22 15:36:26;;;;;;;13.52;8.07;;;5.90;99.90;;;;;;4897045;29;20214;-71
2021/01/22 15:38:52;;;;;;;9.70;5.78;;;5.90;99.90;;;;;;4898575;29;20211;-70
2021/01/22 15:41:18;;;;;;;6.65;6.07;;;5.80;99.90;;;;;;4897718;29;20223;-71
2021/01/22 15:43:44;;;;;;;9.48;6.25;;;5.80;99.90;;;;;;4898016;29;20235;-71
2021/01/22 15:46:11;;;;;;;6.38;5.78;;;5.80;99.90;;;;;;4896744;29;20219;-70
2021/01/22 15:48:37;;;;;;;6.78;5.30;;;5.80;99.90;;;;;;4897542;29;20263;-70
2021/01/22 15:51:03;;;;;;;12.10;6.50;;;5.80;99.90;;;;;;4897351;29;20287;-71
2021/01/22 15:53:30;;;;;;;5.00;4.60;;;5.70;99.90;;;;;;4896899;29;20676;-70
2021/01/22 15:55:56;;;;;;;10.05;6.50;;;5.70;99.90;;;;;;4896613;29;20215;-71
2021/01/22 15:58:22;;;;;;;5.90;5.30;;;5.70;99.90;;;;;;4897770;29;20203;-71
2021/01/22 16:00:48;;;;;;;13.27;8.68;;;5.60;99.90;;;;;;4895061;29;20243;-71
2021/01/22 16:03:15;;;;;;;15.98;12.20;;;5.60;99.90;;;;;;4893745;29;20234;-71
2021/01/22 16:05:41;;;;;;;6.32;5.72;;;5.60;99.90;;;;;;4898101;29;20207;-75
2021/01/22 16:08:07;;;;;;;5.85;5.45;;;5.60;99.90;;;;;;4897938;29;20580;-74
2021/01/22 16:10:34;;;;;;;7.88;5.10;;;5.50;99.90;;;;;;4897586;29;20591;-75
2021/01/22 16:13:00;;;;;;;8.90;7.43;;;5.40;99.90;;;;;;4897544;29;20671;-75
2021/01/22 16:15:27;;;;;;;5.20;4.80;;;5.40;99.90;;;;;;4897550;29;20250;-74
2021/01/22 16:17:53;;;;;;;5.72;4.72;;;5.40;99.90;;;;;;4897312;29;20307;-75
2021/01/22 16:20:19;;;;;;;4.97;4.35;;;5.30;99.90;;;;;;4897230;29;20668;-74
2021/01/22 16:22:46;;;;;;;9.13;7.00;;;5.30;99.90;;;;;;4897236;29;20254;-74
2021/01/22 16:25:12;;;;;;;8.85;5.80;;;5.30;99.90;;;;;;4897358;29;20222;-75
2021/01/22 16:27:39;;;;;;;4.72;3.95;;;5.20;99.90;;;;;;4897318;29;20207;-75
2021/01/22 16:30:07;;;;;;;4.90;4.38;;;5.20;99.90;;;;;;4896819;29;20531;-71
2021/01/22 16:32:34;;;;;;;7.28;4.43;;;5.20;99.90;;;;;;4896792;29;20211;-72
2021/01/22 16:35:00;;;;;;;7.63;5.60;;;5.20;99.90;;;;;;4896587;29;20227;-73
2021/01/22 16:37:26;;;;;;;5.03;4.72;;;5.20;99.90;;;;;;4897197;29;20310;-74
2021/01/22 16:39:54;;;;;;;8.93;5.28;;;5.10;99.90;;;;;;4896715;29;20668;-73
2021/01/22 16:42:21;;;;;;;7.95;7.22;;;5.10;99.90;;;;;;4896399;29;20326;-74
2021/01/22 16:44:48;;;;;;;16.67;8.15;;;5.00;99.90;;;;;;4896718;29;20913;-74
2021/01/22 16:47:14;;;;;;;12.32;7.30;;;5.00;99.90;;;;;;4896542;29;20227;-74
2021/01/22 16:49:40;;;;;;;14.20;9.68;;;5.00;99.90;;;;;;4896107;29;20211;-74
2021/01/22 16:52:06;;;;;;;18.15;10.32;;;4.90;99.90;;;;;;4896187;29;20234;-74
2021/01/22 16:54:33;;;;;;;10.88;7.97;;;4.90;99.90;;;;;;4896224;29;20262;-75
2021/01/22 16:56:59;;;;;;;13.05;8.82;;;4.90;99.90;;;;;;4896600;29;20206;-74
2021/01/22 16:59:25;;;;;;;12.00;9.82;;;4.90;99.90;;;;;;4896709;29;20214;-74
2021/01/22 17:01:52;;;;;;;18.20;13.75;;;4.90;99.90;;;;;;4896281;29;20242;-73
2021/01/22 17:04:19;;;;;;;28.90;19.38;;;4.90;99.90;;;;;;4896698;29;20672;-74
2021/01/22 17:06:45;;;;;;;25.17;19.55;;;4.80;99.90;;;;;;4896433;29;20211;-74
2021/01/22 17:09:11;;;;;;;35.58;23.63;;;4.80;99.90;;;;;;4896636;29;20207;-74
2021/01/22 17:11:37;;;;;;;21.33;15.43;;;4.70;99.90;;;;;;4895929;29;20239;-73
2021/01/22 17:14:03;;;;;;;16.38;13.43;;;4.70;99.90;;;;;;4896945;29;20693;-72
2021/01/22 17:16:30;;;;;;;37.08;24.98;;;4.70;99.90;;;;;;4895189;29;20652;-73
2021/01/22 17:18:57;;;;;;;10.48;8.98;;;4.70;99.90;;;;;;4896556;29;20330;-72
2021/01/22 17:21:23;;;;;;;54.47;31.73;;;4.60;99.90;;;;;;4896243;29;20230;-71
2021/01/22 17:23:49;;;;;;;32.97;17.60;;;4.60;99.90;;;;;;4896051;29;20641;-72
2021/01/22 17:26:15;;;;;;;16.15;12.43;;;4.60;99.90;;;;;;4896371;29;20207;-71
2021/01/22 17:28:41;;;;;;;14.05;11.07;;;4.60;99.90;;;;;;4896137;29;20207;-71
2021/01/22 17:31:08;;;;;;;15.43;11.85;;;4.60;99.90;;;;;;4895716;29;20542;-71
2021/01/22 17:33:34;;;;;;;18.02;12.30;;;4.50;99.90;;;;;;4896467;29;20207;-71
2021/01/22 17:36:01;;;;;;;12.63;9.35;;;4.50;99.90;;;;;;4896006;29;20277;-71
2021/01/22 17:38:27;;;;;;;11.05;9.60;;;4.50;99.90;;;;;;4896204;29;20266;-73
2021/01/22 17:40:53;;;;;;;11.93;10.68;;;4.40;99.90;;;;;;4896387;29;20223;-73
2021/01/22 17:43:19;;;;;;;12.57;11.25;;;4.40;99.90;;;;;;4896534;29;20341;-72
2021/01/22 17:45:46;;;;;;;15.93;9.10;;;4.40;99.90;;;;;;4895472;29;20207;-72
2021/01/22 17:48:12;;;;;;;13.25;10.73;;;4.30;99.90;;;;;;4896391;29;20210;-73
2021/01/22 17:50:38;;;;;;;11.95;10.07;;;4.40;99.90;;;;;;4895718;29;20283;-73
2021/01/22 17:53:05;;;;;;;16.27;10.40;;;4.30;99.90;;;;;;4895950;29;20218;-73
2021/01/22 17:55:31;;;;;;;18.23;10.40;;;4.30;99.90;;;;;;4896167;29;20220;-72
2021/01/22 17:57:58;;;;;;;25.00;16.10;;;4.30;99.90;;;;;;4897318;29;20225;-74
2021/01/22 18:00:26;;;;;;;11.82;10.00;;;4.30;99.90;;;;;;4898569;29;20271;-73